Elliot Chaparral Reserve, California Weather observations

Data are for 10 minute period ending at time listed.
 Day   Time   Solar   Ave.   Ave.  Ave.  Vector  Max.   Baro.   Total    
  of    of     Rad.   Air    Rel.  Wind   Wind   Wind  Press.  Precip.   
Year   Day            Temp.  Hum.  Speed  Dir.   Gust                    
2015   (PST)  Kw/m2    F      %     mph   deg.    mph    mb.     in.     
-------------------------------------------------------------------------
  85    3:30   0.00   66.5    32    5.6    61     6.7   988.2    0.00 
  85    3:40   0.00   67.9    28    4.2    75     6.6   988.3    0.00 
  85    3:50   0.00   68.6    27    4.9    67     6.8   988.4    0.00 
  85    4:00   0.00   66.9    30    5.4    78     6.9   988.4    0.00 
  85    4:10   0.00   67.4    28    5.5    71     6.6   988.3    0.00 
  85    4:20   0.00   67.2    27    6.1    65     7.9   988.3    0.00 
  85    4:30   0.00   66.6    27    5.9    79     8.2   988.4    0.00 
  85    4:40   0.00   65.7    28    6.7    79     8.7   988.4    0.00 
  85    4:50   0.00   65.4    28    7.2    76     8.8   988.4    0.00 
  85    5:00   0.00   65.5    27    4.5    74     7.1   988.5    0.00 
  85    5:10   0.00   65.6    27    4.5    83     6.6   988.6    0.00 
  85    5:20   0.00   65.1    27    4.4    82     6.6   988.6    0.00 
  85    5:30   0.00   64.9    28    5.4    81    10.4   988.8    0.00 
  85    5:40   0.00   64.5    28    6.7    86     9.6   988.8    0.00 
  85    5:50   0.00   64.8    27    7.0    73    10.7   988.8    0.00 
  85    6:00   0.01   65.2    26    6.9    73     8.7   988.8    0.00 
  85    6:10   0.04   65.9    26    6.0    64     8.7   989.0    0.00 
  85    6:20   0.07   67.0    24    4.2    48     5.0   989.1    0.00 
  85    6:30   0.10   68.8    23    4.3    61     5.0   989.1    0.00 
  85    6:40   0.13   69.9    23    4.9    45     6.2   989.1    0.00 
  85    6:50   0.16   72.4    21    4.6    35     6.4   989.1    0.00 
  85    7:00   0.20   72.8    22    4.3    75     7.7   989.2    0.00 
  85    7:10   0.24   72.7    21    6.5    47    10.7   989.3    0.00 
  85    7:20   0.27   74.0    19    7.7    43    12.6   989.3    0.00 
  85    7:30   0.31   75.3    18    6.6    41    11.8   989.3    0.00 
  85    7:40   0.35   76.0    18    9.2    44    13.2   989.3    0.00 
  85    7:50   0.39   77.0    17    9.3    45    13.7   989.4    0.00 
  85    8:00   0.42   78.0    17   10.7    48    15.6   989.4    0.00 
  85    8:10   0.46   79.2    16    8.6    48    13.2   989.4    0.00 
  85    8:20   0.49   80.5    16    6.9    30    10.7   989.4    0.00 
  85    8:30   0.53   81.1    15    8.0    27    12.6   989.4    0.00 
  85    8:40   0.56   82.0    14    7.7    14    10.8   989.4    0.00 
  85    8:50   0.59   82.6    14    8.5    11    11.8   989.3    0.00 
  85    9:00   0.62   83.4    14    7.8     6    12.3   989.3    0.00 
  85    9:10   0.65   84.1    14    7.6     3    12.7   989.3    0.00 
  85    9:20   0.68   85.0    13    7.5     4    13.6   989.2    0.00 
  85    9:30   0.71   85.3    13    8.9   355    12.6   989.1    0.00 
  85    9:40   0.73   84.8    12   10.5   351    17.5   989.1    0.00 
  85    9:50   0.76   85.5    12    7.7   358    16.7   989.1    0.00 
  85   10:00   0.78   86.3    12    7.8     2    15.5   989.0    0.00 
  85   10:10   0.80   86.6    11    8.1    28    14.9   988.9    0.00 
  85   10:20   0.82   87.5    11    7.9   350    16.7   988.8    0.00 
  85   10:30   0.84   87.8    10   10.0    36    19.7   988.8    0.00 
  85   10:40   0.85   88.1    10   11.6    17    18.1   988.7    0.00 
  85   10:50   0.87   88.2    10   10.3    30    20.0   988.6    0.00 
  85   11:00   0.88   89.6    10    7.0     3    12.4   988.6    0.00 
  85   11:10   0.88   88.4    15    9.2   281    15.5   988.7    0.00 
  85   11:20   0.88   84.6    22   13.2   248    18.9   988.7    0.00 
  85   11:30   0.89   84.3    22   12.2   265    17.0   988.7    0.00 
  85   11:40   0.89   84.4    21   12.7   275    15.9   988.5    0.00 
  85   11:50   0.86   84.5    19   12.2   285    15.7   988.5    0.00 
  85   12:00   0.89   85.1    18   11.0   281    14.8   988.5    0.00 
  85   12:10   0.89   84.6    17   11.2   286    15.0   988.4    0.00 
  85   12:20   0.89   84.8    17   13.3   291    16.4   988.3    0.00 
  85   12:30   0.89   85.6    18   12.7   289    18.0   988.2    0.00 
  85   12:40   0.88   84.0    19   12.5   305    17.7   988.1    0.00 
  85   12:50   0.87   84.2    21   12.1   309    17.8   987.9    0.00 
  85   13:00   0.86   83.8    21   14.1   306    17.9   987.8    0.00 
  85   13:10   0.85   83.9    20   13.1   291    17.8   987.7    0.00 
  85   13:20   0.83   84.7    21   11.7   287    16.3   987.6    0.00 
  85   13:30   0.82   84.5    24   12.1   280    15.6   987.4    0.00 
  85   13:40   0.80   85.2    24   12.1   283    15.8   987.2    0.00 
  85   13:50   0.78   85.3    22   12.3   321    17.3   987.1    0.00 
  85   14:00   0.76   84.3    20   14.7   311    18.1   987.0    0.00 
  85   14:10   0.74   84.7    21   12.5   306    17.2   986.9    0.00 
  85   14:20   0.72   84.3    19   13.4   313    18.3   986.9    0.00 
  85   14:30   0.69   84.6    17   14.0   313    17.5   986.7    0.00 
  85   14:40   0.66   84.8    17   14.1   321    18.9   986.6    0.00 
  85   14:50   0.63   85.3    16   12.8   301    16.7   986.6    0.00 
  85   15:00   0.60   85.0    16   15.1   308    18.6   986.5    0.00 
  85   15:10   0.57   84.7    16   14.7   310    18.8   986.5    0.00 
  85   15:20   0.54   84.1    17   14.8   304    19.2   986.5    0.00 
  85   15:30   0.51   84.2    18   14.0   305    19.4   986.4    0.00 
  85   15:40   0.48   84.1    18   12.8   308    18.4   986.4    0.00 
  85   15:50   0.44   83.7    17   13.4   319    19.1   986.4    0.00 
  85   16:00   0.41   83.4    17   13.7   309    18.9   986.4    0.00 
  85   16:10   0.37   84.0    18   10.8   321    15.1   986.4    0.00 
  85   16:20   0.33   84.0    18   12.1   314    17.8   986.4    0.00 
  85   16:30   0.30   83.4    19   11.2   302    15.1   986.4    0.00 
  85   16:40   0.26   83.4    20   11.7   322    15.6   986.4    0.00 
  85   16:50   0.22   82.7    19   11.3   332    15.5   986.4    0.00 
  85   17:00   0.19   82.5    20   10.6   333    16.7   986.5    0.00 
  85   17:10   0.15   81.6    19   12.3   339    16.1   986.6    0.00 
  85   17:20   0.12   81.4    19    9.4   329    12.9   986.7    0.00 
  85   17:30   0.09   80.7    20    9.4   331    13.6   986.7    0.00 
  85   17:40   0.06   79.8    20   11.3   335    14.6   986.7    0.00 
  85   17:50   0.03   78.8    21    9.0   338    13.8   986.8    0.00 
  85   18:00   0.01   77.9    21    7.8   335    11.6   986.9    0.00 
  85   18:10   0.00   76.5    22    8.2   337    11.3   987.1    0.00 
  85   18:20   0.00   75.3    23    6.8   334     9.3   987.2    0.00 
  85   18:30   0.00   74.5    25    6.6   324     9.3   987.4    0.00 
  85   18:40   0.00   74.0    27    6.4   323     8.8   987.6    0.00 
  85   18:50   0.00   73.5    29    5.0   319     7.2   987.7    0.00 
  85   19:00   0.00   73.0    30    3.3   319     4.7   987.8    0.00 
  85   19:10   0.00   72.6    32    3.5   312     5.1   987.9    0.00 
  85   19:20   0.00   72.1    32    3.1   352     4.5   988.0    0.00 
  85   19:30   0.00   71.9    33    4.9   339     5.8   988.0    0.00 
  85   19:40   0.00   71.5    32    4.5   341     6.3   988.1    0.00 
  85   19:50   0.00   72.2    31    1.8     4     3.4   988.2    0.00 
  85   20:00   0.00   72.2    28    1.9    53     3.3   988.3    0.00 
  85   20:10   0.00   72.8    26    2.7    77     3.6   988.4    0.00 
  85   20:20   0.00   71.5    28    5.1    81     6.9   988.5    0.00 
  85   20:30   0.00   72.1    27    5.8    77     7.6   988.5    0.00 
  85   20:40   0.00   72.2    27    7.4    63     8.8   988.5    0.00 
  85   20:50   0.00   73.9    25    5.9    54     8.8   988.7    0.00 
  85   21:00   0.00   71.8    28    4.9   355     6.9   988.8    0.00 
  85   21:10   0.00   70.3    32    4.9   316     7.5   988.9    0.00 
  85   21:20   0.00   68.8    38    5.5   339     7.7   988.9    0.00 
  85   21:30   0.00   69.0    39    4.1   337     5.0   988.8    0.00 
  85   21:40   0.00   68.5    40    5.7   330     6.9   988.8    0.00 
  85   21:50   0.00   68.0    41    5.1   336     6.6   988.9    0.00 
  85   22:00   0.00   68.2    42    3.7   343     4.7   989.0    0.00 
  85   22:10   0.00   68.5    40    3.8   358     5.2   989.0    0.00 
  85   22:20   0.00   68.9    38    3.0   349     5.1   989.0    0.00 
  85   22:30   0.00   69.9    34    2.0    37     2.9   989.0    0.00 
  85   22:40   0.00   69.6    34    2.7   111     3.2   989.0    0.00 
  85   22:50   0.00   69.8    33    3.4   117     4.8   989.0    0.00 
  85   23:00   0.00   70.7    29    3.8   123     5.9   989.0    0.00 
  85   23:10   0.00   71.4    27    4.5   119     6.4   988.9    0.00 
  85   23:20   0.00   71.0    27    5.8    94     8.3   988.8    0.00 
  85   23:30   0.00   70.6    27    4.4   115     8.0   988.9    0.00 
  85   23:40   0.00   69.9    28    4.6   114     8.3   988.9    0.00 
  85   23:50   0.00   69.2    29    5.0   100     7.9   988.9    0.00 
  86    0:00   0.00   68.8    29    5.6    74     8.3   988.9    0.00 
  86    0:10   0.00   67.9    30    7.8    95    12.1   988.9    0.00 
  86    0:20   0.00   67.6    30   11.0   101    13.6   988.9    0.00 
  86    0:30   0.00   67.8    29   10.6    96    12.7   988.8    0.00 
  86    0:40   0.00   67.3    29    8.3    86    12.2   988.7    0.00 
  86    0:50   0.00   68.0    28    6.1    77     8.3   988.8    0.00 
  86    1:00   0.00   68.2    28    6.6   101    10.2   988.8    0.00 
  86    1:10   0.00   68.4    27    7.9   106    11.3   988.7    0.00 
  86    1:20   0.00   69.6    26    6.3   106     9.3   988.7    0.00 
  86    1:30   0.00   69.8    25    7.0   105     9.0   988.7    0.00 
  86    1:40   0.00   69.6    25    6.4   107     8.1   988.7    0.00 
  86    1:50   0.00   69.0    26    6.2   102     8.1   988.7    0.00 
  86    2:00   0.00   67.5    27    6.8    99     9.2   988.6    0.00 
  86    2:10   0.00   67.8    27    5.7    90     8.4   988.6    0.00 
  86    2:20   0.00   69.1    25    5.9   103     9.1   988.5    0.00 
  86    2:30   0.00   69.7    24    6.2   103     8.1   988.4    0.00 
  86    2:40   0.00   69.1    25    6.0    94     8.9   988.4    0.00 
  86    2:50   0.00   67.3    27    5.3    80     7.9   988.3    0.00 
  86    3:00   0.00   67.2    26    4.6    72     7.6   988.3    0.00 
  86    3:10   0.00   68.4    25    6.4    87     8.8   988.3    0.00 
  86    3:20   0.00   68.3    24    6.6    82     9.6   988.2    0.00 

Return to Elliot Chaparral Reserve graphs page.


Western Regional Climate Center,wrcc@dri.edu